Flight Briefing for CPX417

Departure Arrival
Sacramento International Airport (KSMF)
Click to view FAA NOTAMS
Chicago/Rockford International Airport (KRFD)
Click to view FAA NOTAMS
Departure Time Arrival Time
N/A N/A
Aircraft Distance
B757-200SF 1511nm
Departure METAR Arrival METAR
KSMF 221153Z 14009KT 10SM FEW060 08/07 A3013 RMK AO2 SLP201 7//// T00830067 10111 20072 56002 KRFD 221154Z 34005KT 10SM CLR 01/M02 A3005 RMK AO2 SLP182 T00061017 10039 20006 53024
Suggested Route
SCTWN2 RALEY INSLO DTA DBL J60 IOW PLL


View recent IFR Routes data
Notes



Charts and Procedures

Charts for KSMF
No chart available
Charts for KRFD
No chart available

Windy.com Weather Map